sensor_id;sensor_type;location;lat;lon;timestamp;temperature;humidity
20700;DHT22;10511;51.232;9.420;2023-05-29T00:00:28;15.00;99.90
20700;DHT22;10511;51.232;9.420;2023-05-29T00:02:55;14.90;99.90
20700;DHT22;10511;51.232;9.420;2023-05-29T00:05:21;14.90;99.90
20700;DHT22;10511;51.232;9.420;2023-05-29T00:07:48;14.80;99.90
20700;DHT22;10511;51.232;9.420;2023-05-29T00:10:16;14.80;99.90
20700;DHT22;10511;51.232;9.420;2023-05-29T00:12:43;14.80;99.90
20700;DHT22;10511;51.232;9.420;2023-05-29T00:15:10;14.80;99.90
20700;DHT22;10511;51.232;9.420;2023-05-29T00:17:39;14.70;99.90
20700;DHT22;10511;51.232;9.420;2023-05-29T00:20:07;14.70;99.90
20700;DHT22;10511;51.232;9.420;2023-05-29T00:22:36;14.70;99.90
20700;DHT22;10511;51.232;9.420;2023-05-29T00:25:04;14.70;99.90
20700;DHT22;10511;51.232;9.420;2023-05-29T00:27:31;14.80;99.90
20700;DHT22;10511;51.232;9.420;2023-05-29T00:29:58;14.80;99.90
20700;DHT22;10511;51.232;9.420;2023-05-29T00:32:25;14.80;99.90
20700;DHT22;10511;51.232;9.420;2023-05-29T00:34:54;14.80;99.90
20700;DHT22;10511;51.232;9.420;2023-05-29T00:37:21;14.70;99.90
20700;DHT22;10511;51.232;9.420;2023-05-29T00:39:48;14.60;99.90
20700;DHT22;10511;51.232;9.420;2023-05-29T00:42:15;14.60;99.90
20700;DHT22;10511;51.232;9.420;2023-05-29T00:44:42;14.50;99.90
20700;DHT22;10511;51.232;9.420;2023-05-29T00:47:09;14.50;99.90
20700;DHT22;10511;51.232;9.420;2023-05-29T00:49:36;14.50;99.90
20700;DHT22;10511;51.232;9.420;2023-05-29T00:52:07;14.40;99.90
20700;DHT22;10511;51.232;9.420;2023-05-29T00:54:36;14.40;99.90
20700;DHT22;10511;51.232;9.420;2023-05-29T00:57:04;14.30;99.90
20700;DHT22;10511;51.232;9.420;2023-05-29T00:59:32;14.30;99.90
20700;DHT22;10511;51.232;9.420;2023-05-29T01:02:01;14.30;99.90
20700;DHT22;10511;51.232;9.420;2023-05-29T01:04:29;14.30;99.90
20700;DHT22;10511;51.232;9.420;2023-05-29T01:06:59;14.30;99.90
20700;DHT22;10511;51.232;9.420;2023-05-29T01:09:29;14.30;99.90
20700;DHT22;10511;51.232;9.420;2023-05-29T01:12:02;14.20;99.90
20700;DHT22;10511;51.232;9.420;2023-05-29T01:14:36;14.10;99.90
20700;DHT22;10511;51.232;9.420;2023-05-29T01:17:14;14.00;99.90
20700;DHT22;10511;51.232;9.420;2023-05-29T01:19:58;14.00;99.90
20700;DHT22;10511;51.232;9.420;2023-05-29T01:22:40;14.00;99.90
20700;DHT22;10511;51.232;9.420;2023-05-29T01:25:21;14.00;99.90
20700;DHT22;10511;51.232;9.420;2023-05-29T01:27:53;14.00;99.90
20700;DHT22;10511;51.232;9.420;2023-05-29T01:30:20;13.90;99.90
20700;DHT22;10511;51.232;9.420;2023-05-29T01:32:48;14.00;99.90
20700;DHT22;10511;51.232;9.420;2023-05-29T01:35:15;13.90;99.90
20700;DHT22;10511;51.232;9.420;2023-05-29T01:37:42;13.90;99.90
20700;DHT22;10511;51.232;9.420;2023-05-29T01:40:09;13.90;99.90
20700;DHT22;10511;51.232;9.420;2023-05-29T01:42:36;13.90;99.90
20700;DHT22;10511;51.232;9.420;2023-05-29T01:45:06;13.90;99.90
20700;DHT22;10511;51.232;9.420;2023-05-29T01:47:34;13.90;99.90
20700;DHT22;10511;51.232;9.420;2023-05-29T01:50:04;13.90;99.90
20700;DHT22;10511;51.232;9.420;2023-05-29T01:52:31;13.80;99.90
20700;DHT22;10511;51.232;9.420;2023-05-29T01:54:58;13.60;99.90
20700;DHT22;10511;51.232;9.420;2023-05-29T01:57:25;13.60;99.90
20700;DHT22;10511;51.232;9.420;2023-05-29T01:59:53;13.60;99.90
20700;DHT22;10511;51.232;9.420;2023-05-29T02:02:22;13.60;99.90
20700;DHT22;10511;51.232;9.420;2023-05-29T02:04:49;13.60;99.90
20700;DHT22;10511;51.232;9.420;2023-05-29T02:07:17;13.50;99.90
20700;DHT22;10511;51.232;9.420;2023-05-29T02:09:44;13.40;99.90
20700;DHT22;10511;51.232;9.420;2023-05-29T02:12:11;13.40;99.90
20700;DHT22;10511;51.232;9.420;2023-05-29T02:14:38;13.40;99.90
20700;DHT22;10511;51.232;9.420;2023-05-29T02:17:06;13.30;99.90
20700;DHT22;10511;51.232;9.420;2023-05-29T02:19:34;13.30;99.90
20700;DHT22;10511;51.232;9.420;2023-05-29T02:22:02;13.30;99.90
20700;DHT22;10511;51.232;9.420;2023-05-29T02:24:29;13.30;99.90
20700;DHT22;10511;51.232;9.420;2023-05-29T02:26:56;13.30;99.90
20700;DHT22;10511;51.232;9.420;2023-05-29T02:29:22;13.30;99.90
20700;DHT22;10511;51.232;9.420;2023-05-29T02:31:49;13.30;99.90
20700;DHT22;10511;51.232;9.420;2023-05-29T02:34:16;13.20;99.90
20700;DHT22;10511;51.232;9.420;2023-05-29T02:36:44;13.20;99.90
20700;DHT22;10511;51.232;9.420;2023-05-29T02:39:11;13.20;99.90
20700;DHT22;10511;51.232;9.420;2023-05-29T02:41:38;13.10;99.90
20700;DHT22;10511;51.232;9.420;2023-05-29T02:44:05;13.10;99.90
20700;DHT22;10511;51.232;9.420;2023-05-29T02:46:32;13.10;99.90
20700;DHT22;10511;51.232;9.420;2023-05-29T02:48:59;13.00;99.90
20700;DHT22;10511;51.232;9.420;2023-05-29T02:51:25;13.00;99.90
20700;DHT22;10511;51.232;9.420;2023-05-29T02:53:54;13.00;99.90
20700;DHT22;10511;51.232;9.420;2023-05-29T02:56:21;12.90;99.90
20700;DHT22;10511;51.232;9.420;2023-05-29T02:58:49;12.90;99.90
20700;DHT22;10511;51.232;9.420;2023-05-29T03:01:16;12.90;99.90
20700;DHT22;10511;51.232;9.420;2023-05-29T03:03:43;12.90;99.90
20700;DHT22;10511;51.232;9.420;2023-05-29T03:06:10;12.90;99.90
20700;DHT22;10511;51.232;9.420;2023-05-29T03:08:38;12.90;99.90
20700;DHT22;10511;51.232;9.420;2023-05-29T03:11:07;12.80;99.90
20700;DHT22;10511;51.232;9.420;2023-05-29T03:13:34;12.80;99.90
20700;DHT22;10511;51.232;9.420;2023-05-29T03:16:02;12.80;99.90
20700;DHT22;10511;51.232;9.420;2023-05-29T03:18:29;12.80;99.90
20700;DHT22;10511;51.232;9.420;2023-05-29T03:20:56;12.70;99.90
20700;DHT22;10511;51.232;9.420;2023-05-29T03:23:23;12.80;99.90
20700;DHT22;10511;51.232;9.420;2023-05-29T03:25:50;12.70;99.90
20700;DHT22;10511;51.232;9.420;2023-05-29T03:28:18;12.70;99.90
20700;DHT22;10511;51.232;9.420;2023-05-29T03:30:45;12.70;99.90
20700;DHT22;10511;51.232;9.420;2023-05-29T03:33:11;12.70;99.90
20700;DHT22;10511;51.232;9.420;2023-05-29T03:35:38;12.70;99.90
20700;DHT22;10511;51.232;9.420;2023-05-29T03:38:05;12.60;99.90
20700;DHT22;10511;51.232;9.420;2023-05-29T03:40:32;12.70;99.90
20700;DHT22;10511;51.232;9.420;2023-05-29T03:42:59;12.60;99.90
20700;DHT22;10511;51.232;9.420;2023-05-29T03:45:28;12.50;99.90
20700;DHT22;10511;51.232;9.420;2023-05-29T03:47:55;12.50;99.90
20700;DHT22;10511;51.232;9.420;2023-05-29T03:50:21;12.50;99.90
20700;DHT22;10511;51.232;9.420;2023-05-29T03:52:48;12.50;99.90
20700;DHT22;10511;51.232;9.420;2023-05-29T03:55:15;12.50;99.90
20700;DHT22;10511;51.232;9.420;2023-05-29T03:57:42;12.50;99.90
20700;DHT22;10511;51.232;9.420;2023-05-29T04:00:10;12.50;99.90
20700;DHT22;10511;51.232;9.420;2023-05-29T04:02:39;12.50;99.90
20700;DHT22;10511;51.232;9.420;2023-05-29T04:05:07;12.50;99.90
20700;DHT22;10511;51.232;9.420;2023-05-29T04:07:35;12.50;99.90
20700;DHT22;10511;51.232;9.420;2023-05-29T04:10:05;12.40;99.90
20700;DHT22;10511;51.232;9.420;2023-05-29T04:12:32;12.50;99.90
20700;DHT22;10511;51.232;9.420;2023-05-29T04:14:59;12.50;99.90
20700;DHT22;10511;51.232;9.420;2023-05-29T04:17:26;12.50;99.90
20700;DHT22;10511;51.232;9.420;2023-05-29T04:19:54;12.50;99.90
20700;DHT22;10511;51.232;9.420;2023-05-29T04:22:21;12.50;99.90
20700;DHT22;10511;51.232;9.420;2023-05-29T04:24:48;12.50;99.90
20700;DHT22;10511;51.232;9.420;2023-05-29T04:27:14;12.50;99.90
20700;DHT22;10511;51.232;9.420;2023-05-29T04:29:41;12.60;99.90
20700;DHT22;10511;51.232;9.420;2023-05-29T04:32:09;12.60;99.90
20700;DHT22;10511;51.232;9.420;2023-05-29T04:34:36;12.60;99.90
20700;DHT22;10511;51.232;9.420;2023-05-29T04:37:05;12.60;99.90
20700;DHT22;10511;51.232;9.420;2023-05-29T04:39:33;12.60;99.90
20700;DHT22;10511;51.232;9.420;2023-05-29T04:41:59;12.70;99.90
20700;DHT22;10511;51.232;9.420;2023-05-29T04:44:26;12.70;99.90
20700;DHT22;10511;51.232;9.420;2023-05-29T04:46:54;12.70;99.90
20700;DHT22;10511;51.232;9.420;2023-05-29T04:49:22;12.70;99.90
20700;DHT22;10511;51.232;9.420;2023-05-29T04:51:49;12.70;99.90
20700;DHT22;10511;51.232;9.420;2023-05-29T04:54:19;12.70;99.90
20700;DHT22;10511;51.232;9.420;2023-05-29T04:56:46;12.80;99.90
20700;DHT22;10511;51.232;9.420;2023-05-29T04:59:13;12.80;99.90
20700;DHT22;10511;51.232;9.420;2023-05-29T05:01:40;12.80;99.90
20700;DHT22;10511;51.232;9.420;2023-05-29T05:04:08;12.80;99.90
20700;DHT22;10511;51.232;9.420;2023-05-29T05:06:35;12.80;99.90
20700;DHT22;10511;51.232;9.420;2023-05-29T05:09:03;12.80;99.90
20700;DHT22;10511;51.232;9.420;2023-05-29T05:11:31;12.80;99.90
20700;DHT22;10511;51.232;9.420;2023-05-29T05:13:58;12.80;99.90
20700;DHT22;10511;51.232;9.420;2023-05-29T05:16:25;12.80;99.90
20700;DHT22;10511;51.232;9.420;2023-05-29T05:18:51;12.90;99.90
20700;DHT22;10511;51.232;9.420;2023-05-29T05:21:18;12.90;99.90
20700;DHT22;10511;51.232;9.420;2023-05-29T05:23:45;12.90;99.90
20700;DHT22;10511;51.232;9.420;2023-05-29T05:26:12;12.90;99.90
20700;DHT22;10511;51.232;9.420;2023-05-29T05:28:40;12.90;99.90
20700;DHT22;10511;51.232;9.420;2023-05-29T05:31:08;12.90;99.90
20700;DHT22;10511;51.232;9.420;2023-05-29T05:33:35;13.00;99.90
20700;DHT22;10511;51.232;9.420;2023-05-29T05:36:02;13.00;99.90
20700;DHT22;10511;51.232;9.420;2023-05-29T05:38:29;13.00;99.90
20700;DHT22;10511;51.232;9.420;2023-05-29T05:40:56;13.00;99.90
20700;DHT22;10511;51.232;9.420;2023-05-29T05:43:22;13.00;99.90
20700;DHT22;10511;51.232;9.420;2023-05-29T05:45:53;13.10;99.90
20700;DHT22;10511;51.232;9.420;2023-05-29T05:48:20;13.20;99.90
20700;DHT22;10511;51.232;9.420;2023-05-29T05:50:47;13.20;99.90
20700;DHT22;10511;51.232;9.420;2023-05-29T05:53:14;13.30;99.90
20700;DHT22;10511;51.232;9.420;2023-05-29T05:55:42;13.30;99.90
20700;DHT22;10511;51.232;9.420;2023-05-29T05:58:09;13.30;99.90
20700;DHT22;10511;51.232;9.420;2023-05-29T06:00:36;13.30;99.90
20700;DHT22;10511;51.232;9.420;2023-05-29T06:03:04;13.40;99.90
20700;DHT22;10511;51.232;9.420;2023-05-29T06:05:31;13.50;99.90
20700;DHT22;10511;51.232;9.420;2023-05-29T06:07:59;13.50;99.90
20700;DHT22;10511;51.232;9.420;2023-05-29T06:10:26;13.40;99.90
20700;DHT22;10511;51.232;9.420;2023-05-29T06:12:53;13.40;99.90
20700;DHT22;10511;51.232;9.420;2023-05-29T06:15:20;13.50;99.90
20700;DHT22;10511;51.232;9.420;2023-05-29T06:17:47;13.60;99.90
20700;DHT22;10511;51.232;9.420;2023-05-29T06:20:15;13.60;99.90
20700;DHT22;10511;51.232;9.420;2023-05-29T06:22:42;13.70;99.90
20700;DHT22;10511;51.232;9.420;2023-05-29T06:25:09;13.80;99.90
20700;DHT22;10511;51.232;9.420;2023-05-29T06:27:36;13.80;99.90
20700;DHT22;10511;51.232;9.420;2023-05-29T06:30:03;13.70;99.90
20700;DHT22;10511;51.232;9.420;2023-05-29T06:32:30;13.80;99.90
20700;DHT22;10511;51.232;9.420;2023-05-29T06:34:57;13.90;99.90
20700;DHT22;10511;51.232;9.420;2023-05-29T06:37:25;13.90;99.90
20700;DHT22;10511;51.232;9.420;2023-05-29T06:39:52;14.10;99.90
20700;DHT22;10511;51.232;9.420;2023-05-29T06:42:19;14.20;99.90
20700;DHT22;10511;51.232;9.420;2023-05-29T06:44:46;14.20;99.90
20700;DHT22;10511;51.232;9.420;2023-05-29T06:47:13;14.30;99.90
20700;DHT22;10511;51.232;9.420;2023-05-29T06:49:39;14.20;99.90
20700;DHT22;10511;51.232;9.420;2023-05-29T06:52:06;14.30;99.90
20700;DHT22;10511;51.232;9.420;2023-05-29T06:54:34;14.30;99.90
20700;DHT22;10511;51.232;9.420;2023-05-29T06:57:01;14.40;99.90
20700;DHT22;10511;51.232;9.420;2023-05-29T06:59:28;14.40;99.90
20700;DHT22;10511;51.232;9.420;2023-05-29T07:01:55;14.50;99.90
20700;DHT22;10511;51.232;9.420;2023-05-29T07:04:22;14.60;99.90
20700;DHT22;10511;51.232;9.420;2023-05-29T07:06:49;14.70;99.90
20700;DHT22;10511;51.232;9.420;2023-05-29T07:09:17;14.90;99.90
20700;DHT22;10511;51.232;9.420;2023-05-29T07:11:45;14.90;99.90
20700;DHT22;10511;51.232;9.420;2023-05-29T07:14:12;14.90;99.90
20700;DHT22;10511;51.232;9.420;2023-05-29T07:16:39;15.00;99.90
20700;DHT22;10511;51.232;9.420;2023-05-29T07:19:06;15.00;99.90
20700;DHT22;10511;51.232;9.420;2023-05-29T07:21:33;15.10;99.90
20700;DHT22;10511;51.232;9.420;2023-05-29T07:24:01;15.20;99.90
20700;DHT22;10511;51.232;9.420;2023-05-29T07:26:28;15.30;99.90
20700;DHT22;10511;51.232;9.420;2023-05-29T07:28:57;15.30;99.90
20700;DHT22;10511;51.232;9.420;2023-05-29T07:31:24;15.40;99.90
20700;DHT22;10511;51.232;9.420;2023-05-29T07:33:52;15.40;99.90
20700;DHT22;10511;51.232;9.420;2023-05-29T07:36:18;15.50;99.90
20700;DHT22;10511;51.232;9.420;2023-05-29T07:38:46;15.50;99.90
20700;DHT22;10511;51.232;9.420;2023-05-29T07:41:15;15.60;99.90
20700;DHT22;10511;51.232;9.420;2023-05-29T07:43:42;15.80;99.90
20700;DHT22;10511;51.232;9.420;2023-05-29T07:46:12;15.90;99.90
20700;DHT22;10511;51.232;9.420;2023-05-29T07:48:39;16.00;99.90
20700;DHT22;10511;51.232;9.420;2023-05-29T07:51:05;16.00;99.90
20700;DHT22;10511;51.232;9.420;2023-05-29T07:53:35;16.10;99.90
20700;DHT22;10511;51.232;9.420;2023-05-29T07:56:02;16.30;99.90
20700;DHT22;10511;51.232;9.420;2023-05-29T07:58:29;16.40;99.90
20700;DHT22;10511;51.232;9.420;2023-05-29T08:00:56;16.40;99.90
20700;DHT22;10511;51.232;9.420;2023-05-29T08:03:24;16.50;99.90
20700;DHT22;10511;51.232;9.420;2023-05-29T08:05:51;16.50;99.90
20700;DHT22;10511;51.232;9.420;2023-05-29T08:08:18;16.50;99.90
20700;DHT22;10511;51.232;9.420;2023-05-29T08:10:45;16.50;99.90
20700;DHT22;10511;51.232;9.420;2023-05-29T08:13:12;16.70;99.90
20700;DHT22;10511;51.232;9.420;2023-05-29T08:15:39;16.60;99.90
20700;DHT22;10511;51.232;9.420;2023-05-29T08:18:05;16.90;99.90
20700;DHT22;10511;51.232;9.420;2023-05-29T08:20:34;17.00;99.90
20700;DHT22;10511;51.232;9.420;2023-05-29T08:23:00;17.20;99.90
20700;DHT22;10511;51.232;9.420;2023-05-29T08:25:27;17.50;99.90
20700;DHT22;10511;51.232;9.420;2023-05-29T08:27:54;17.60;99.90
20700;DHT22;10511;51.232;9.420;2023-05-29T08:30:21;17.50;99.90
20700;DHT22;10511;51.232;9.420;2023-05-29T08:32:51;17.60;99.90
20700;DHT22;10511;51.232;9.420;2023-05-29T08:35:18;17.60;99.90
20700;DHT22;10511;51.232;9.420;2023-05-29T08:37:46;17.60;99.90
20700;DHT22;10511;51.232;9.420;2023-05-29T08:40:13;17.80;99.90
20700;DHT22;10511;51.232;9.420;2023-05-29T08:42:45;18.00;99.90
20700;DHT22;10511;51.232;9.420;2023-05-29T08:45:14;17.90;99.90
20700;DHT22;10511;51.232;9.420;2023-05-29T08:47:41;18.00;99.90
20700;DHT22;10511;51.232;9.420;2023-05-29T08:50:08;18.10;99.90
20700;DHT22;10511;51.232;9.420;2023-05-29T08:52:36;18.10;99.90
20700;DHT22;10511;51.232;9.420;2023-05-29T08:55:08;18.20;99.90
20700;DHT22;10511;51.232;9.420;2023-05-29T08:57:36;18.10;99.90
20700;DHT22;10511;51.232;9.420;2023-05-29T09:00:05;18.10;99.90
20700;DHT22;10511;51.232;9.420;2023-05-29T09:02:37;18.30;99.90
20700;DHT22;10511;51.232;9.420;2023-05-29T09:05:05;18.30;99.90
20700;DHT22;10511;51.232;9.420;2023-05-29T09:07:32;18.40;99.90
20700;DHT22;10511;51.232;9.420;2023-05-29T09:09:59;18.50;99.90
20700;DHT22;10511;51.232;9.420;2023-05-29T09:12:27;18.60;99.90
20700;DHT22;10511;51.232;9.420;2023-05-29T09:14:54;18.70;99.90
20700;DHT22;10511;51.232;9.420;2023-05-29T09:17:21;18.80;99.90
20700;DHT22;10511;51.232;9.420;2023-05-29T09:19:49;18.90;99.90
20700;DHT22;10511;51.232;9.420;2023-05-29T09:22:16;18.80;99.90
20700;DHT22;10511;51.232;9.420;2023-05-29T09:24:46;18.70;99.90
20700;DHT22;10511;51.232;9.420;2023-05-29T09:27:14;18.80;99.90
20700;DHT22;10511;51.232;9.420;2023-05-29T09:29:43;18.90;99.90
20700;DHT22;10511;51.232;9.420;2023-05-29T09:32:13;19.00;99.90
20700;DHT22;10511;51.232;9.420;2023-05-29T09:34:41;19.00;99.90
20700;DHT22;10511;51.232;9.420;2023-05-29T09:37:09;19.10;99.90
20700;DHT22;10511;51.232;9.420;2023-05-29T09:39:47;19.30;99.90
20700;DHT22;10511;51.232;9.420;2023-05-29T09:42:14;19.20;99.90
20700;DHT22;10511;51.232;9.420;2023-05-29T09:44:44;19.10;99.90
20700;DHT22;10511;51.232;9.420;2023-05-29T09:47:14;19.20;99.90
20700;DHT22;10511;51.232;9.420;2023-05-29T09:49:43;19.50;99.90
20700;DHT22;10511;51.232;9.420;2023-05-29T09:52:11;19.50;99.90
20700;DHT22;10511;51.232;9.420;2023-05-29T09:54:41;19.60;99.90
20700;DHT22;10511;51.232;9.420;2023-05-29T09:57:12;19.70;99.90
20700;DHT22;10511;51.232;9.420;2023-05-29T09:59:39;19.70;99.90
20700;DHT22;10511;51.232;9.420;2023-05-29T10:02:11;19.70;99.90
20700;DHT22;10511;51.232;9.420;2023-05-29T10:04:39;19.80;99.90
20700;DHT22;10511;51.232;9.420;2023-05-29T10:07:32;20.20;99.90
20700;DHT22;10511;51.232;9.420;2023-05-29T10:10:11;20.00;99.90
20700;DHT22;10511;51.232;9.420;2023-05-29T10:12:44;20.30;99.90
20700;DHT22;10511;51.232;9.420;2023-05-29T10:15:12;20.60;99.90
20700;DHT22;10511;51.232;9.420;2023-05-29T10:17:44;20.80;99.90
20700;DHT22;10511;51.232;9.420;2023-05-29T10:20:14;21.00;99.90
20700;DHT22;10511;51.232;9.420;2023-05-29T10:22:46;20.90;99.90
20700;DHT22;10511;51.232;9.420;2023-05-29T10:25:14;20.90;99.90
20700;DHT22;10511;51.232;9.420;2023-05-29T10:27:41;20.80;99.90
20700;DHT22;10511;51.232;9.420;2023-05-29T10:30:14;20.70;99.90
20700;DHT22;10511;51.232;9.420;2023-05-29T10:32:56;20.70;99.90
20700;DHT22;10511;51.232;9.420;2023-05-29T10:35:31;20.70;99.90
20700;DHT22;10511;51.232;9.420;2023-05-29T10:38:10;20.90;99.90
20700;DHT22;10511;51.232;9.420;2023-05-29T10:40:37;20.80;99.90
20700;DHT22;10511;51.232;9.420;2023-05-29T10:43:04;20.80;99.90
20700;DHT22;10511;51.232;9.420;2023-05-29T10:45:50;20.90;99.90
20700;DHT22;10511;51.232;9.420;2023-05-29T10:48:42;20.90;99.90
20700;DHT22;10511;51.232;9.420;2023-05-29T10:51:25;20.80;99.90
20700;DHT22;10511;51.232;9.420;2023-05-29T10:53:52;20.90;99.90
20700;DHT22;10511;51.232;9.420;2023-05-29T10:56:23;21.00;99.90
20700;DHT22;10511;51.232;9.420;2023-05-29T10:58:55;21.20;99.90
20700;DHT22;10511;51.232;9.420;2023-05-29T11:01:23;21.50;99.90
20700;DHT22;10511;51.232;9.420;2023-05-29T11:03:54;21.50;99.90
20700;DHT22;10511;51.232;9.420;2023-05-29T11:06:41;21.20;99.90
20700;DHT22;10511;51.232;9.420;2023-05-29T11:09:26;21.30;99.90
20700;DHT22;10511;51.232;9.420;2023-05-29T11:12:11;21.30;99.90
20700;DHT22;10511;51.232;9.420;2023-05-29T11:14:45;21.30;99.90
20700;DHT22;10511;51.232;9.420;2023-05-29T11:17:30;21.30;99.90
20700;DHT22;10511;51.232;9.420;2023-05-29T11:20:01;21.20;99.90
20700;DHT22;10511;51.232;9.420;2023-05-29T11:22:41;20.90;99.90
20700;DHT22;10511;51.232;9.420;2023-05-29T11:25:14;20.80;99.90
20700;DHT22;10511;51.232;9.420;2023-05-29T11:27:41;20.90;99.90
20700;DHT22;10511;51.232;9.420;2023-05-29T11:30:09;21.10;99.90
20700;DHT22;10511;51.232;9.420;2023-05-29T11:32:38;21.40;99.90
20700;DHT22;10511;51.232;9.420;2023-05-29T11:35:08;21.50;99.90
20700;DHT22;10511;51.232;9.420;2023-05-29T11:37:36;21.80;99.90
20700;DHT22;10511;51.232;9.420;2023-05-29T11:40:06;21.80;99.90
20700;DHT22;10511;51.232;9.420;2023-05-29T11:42:33;21.90;99.90
20700;DHT22;10511;51.232;9.420;2023-05-29T11:45:11;21.90;99.90
20700;DHT22;10511;51.232;9.420;2023-05-29T11:47:53;21.80;99.90
20700;DHT22;10511;51.232;9.420;2023-05-29T11:50:23;21.60;99.90
20700;DHT22;10511;51.232;9.420;2023-05-29T11:52:50;21.80;99.90
20700;DHT22;10511;51.232;9.420;2023-05-29T11:55:18;21.50;99.90
20700;DHT22;10511;51.232;9.420;2023-05-29T11:57:46;21.40;99.90
20700;DHT22;10511;51.232;9.420;2023-05-29T12:00:14;21.20;99.90
20700;DHT22;10511;51.232;9.420;2023-05-29T12:02:43;21.20;99.90
20700;DHT22;10511;51.232;9.420;2023-05-29T12:05:13;21.50;99.90
20700;DHT22;10511;51.232;9.420;2023-05-29T12:07:54;21.50;99.90
20700;DHT22;10511;51.232;9.420;2023-05-29T12:10:22;21.20;99.90
20700;DHT22;10511;51.232;9.420;2023-05-29T12:12:51;21.20;99.90
20700;DHT22;10511;51.232;9.420;2023-05-29T12:15:19;21.60;99.90
20700;DHT22;10511;51.232;9.420;2023-05-29T12:17:47;22.00;99.90
20700;DHT22;10511;51.232;9.420;2023-05-29T12:20:14;22.10;99.90
20700;DHT22;10511;51.232;9.420;2023-05-29T12:22:43;22.20;99.90
20700;DHT22;10511;51.232;9.420;2023-05-29T12:25:12;22.40;99.90
20700;DHT22;10511;51.232;9.420;2023-05-29T12:27:41;22.30;99.90
20700;DHT22;10511;51.232;9.420;2023-05-29T12:30:09;22.20;99.90
20700;DHT22;10511;51.232;9.420;2023-05-29T12:32:37;21.80;99.90
20700;DHT22;10511;51.232;9.420;2023-05-29T12:35:11;21.40;99.90
20700;DHT22;10511;51.232;9.420;2023-05-29T12:37:42;21.40;99.90
20700;DHT22;10511;51.232;9.420;2023-05-29T12:40:18;21.60;99.90
20700;DHT22;10511;51.232;9.420;2023-05-29T12:42:46;21.40;99.90
20700;DHT22;10511;51.232;9.420;2023-05-29T12:45:13;21.20;99.90
20700;DHT22;10511;51.232;9.420;2023-05-29T12:47:50;21.00;99.90
20700;DHT22;10511;51.232;9.420;2023-05-29T12:50:24;20.60;99.90
20700;DHT22;10511;51.232;9.420;2023-05-29T12:53:02;20.50;99.90
20700;DHT22;10511;51.232;9.420;2023-05-29T12:55:33;20.50;99.90
20700;DHT22;10511;51.232;9.420;2023-05-29T12:58:02;20.50;99.90
20700;DHT22;10511;51.232;9.420;2023-05-29T13:00:29;20.40;99.90
20700;DHT22;10511;51.232;9.420;2023-05-29T13:02:57;20.40;99.90
20700;DHT22;10511;51.232;9.420;2023-05-29T13:05:24;20.60;99.90
20700;DHT22;10511;51.232;9.420;2023-05-29T13:07:51;20.50;99.90
20700;DHT22;10511;51.232;9.420;2023-05-29T13:10:19;20.50;99.90
20700;DHT22;10511;51.232;9.420;2023-05-29T13:12:48;20.50;99.90
20700;DHT22;10511;51.232;9.420;2023-05-29T13:15:19;20.60;99.90
20700;DHT22;10511;51.232;9.420;2023-05-29T13:17:47;20.50;99.90
20700;DHT22;10511;51.232;9.420;2023-05-29T13:20:14;20.40;99.90
20700;DHT22;10511;51.232;9.420;2023-05-29T13:22:42;20.70;99.90
20700;DHT22;10511;51.232;9.420;2023-05-29T13:25:11;21.10;99.90
20700;DHT22;10511;51.232;9.420;2023-05-29T13:27:40;21.60;99.90
20700;DHT22;10511;51.232;9.420;2023-05-29T13:30:09;21.70;99.90
20700;DHT22;10511;51.232;9.420;2023-05-29T13:32:37;21.90;99.90
20700;DHT22;10511;51.232;9.420;2023-05-29T13:35:04;21.80;99.90
20700;DHT22;10511;51.232;9.420;2023-05-29T13:37:31;22.10;99.90
20700;DHT22;10511;51.232;9.420;2023-05-29T13:39:58;22.00;99.90
20700;DHT22;10511;51.232;9.420;2023-05-29T13:42:25;22.20;99.90
20700;DHT22;10511;51.232;9.420;2023-05-29T13:44:53;22.20;99.90
20700;DHT22;10511;51.232;9.420;2023-05-29T13:47:21;22.10;99.90
20700;DHT22;10511;51.232;9.420;2023-05-29T13:49:49;21.90;99.90
20700;DHT22;10511;51.232;9.420;2023-05-29T13:52:20;22.00;99.90
20700;DHT22;10511;51.232;9.420;2023-05-29T13:54:48;22.00;99.90
20700;DHT22;10511;51.232;9.420;2023-05-29T13:57:22;22.00;99.90
20700;DHT22;10511;51.232;9.420;2023-05-29T13:59:50;22.00;99.90
20700;DHT22;10511;51.232;9.420;2023-05-29T14:02:18;21.40;99.90
20700;DHT22;10511;51.232;9.420;2023-05-29T14:04:48;21.10;99.90
20700;DHT22;10511;51.232;9.420;2023-05-29T14:07:15;21.10;99.90
20700;DHT22;10511;51.232;9.420;2023-05-29T14:09:42;21.00;99.90
20700;DHT22;10511;51.232;9.420;2023-05-29T14:12:09;21.20;99.90
20700;DHT22;10511;51.232;9.420;2023-05-29T14:14:36;21.10;99.90
20700;DHT22;10511;51.232;9.420;2023-05-29T14:17:05;21.00;99.90
20700;DHT22;10511;51.232;9.420;2023-05-29T14:19:32;21.20;99.90
20700;DHT22;10511;51.232;9.420;2023-05-29T14:22:00;21.30;99.90
20700;DHT22;10511;51.232;9.420;2023-05-29T14:24:28;21.40;99.90
20700;DHT22;10511;51.232;9.420;2023-05-29T14:26:55;21.50;99.90
20700;DHT22;10511;51.232;9.420;2023-05-29T14:29:22;21.40;99.90
20700;DHT22;10511;51.232;9.420;2023-05-29T14:31:49;21.50;99.90
20700;DHT22;10511;51.232;9.420;2023-05-29T14:34:15;21.70;99.90
20700;DHT22;10511;51.232;9.420;2023-05-29T14:36:42;21.70;99.90
20700;DHT22;10511;51.232;9.420;2023-05-29T14:39:11;21.70;99.90
20700;DHT22;10511;51.232;9.420;2023-05-29T14:41:38;21.80;99.90
20700;DHT22;10511;51.232;9.420;2023-05-29T14:44:05;21.90;99.90
20700;DHT22;10511;51.232;9.420;2023-05-29T14:46:32;21.70;99.90
20700;DHT22;10511;51.232;9.420;2023-05-29T14:49:00;21.60;99.90
20700;DHT22;10511;51.232;9.420;2023-05-29T14:51:27;21.50;99.90
20700;DHT22;10511;51.232;9.420;2023-05-29T14:53:54;21.20;99.90
20700;DHT22;10511;51.232;9.420;2023-05-29T14:56:23;21.20;99.90
20700;DHT22;10511;51.232;9.420;2023-05-29T14:58:50;21.20;99.90
20700;DHT22;10511;51.232;9.420;2023-05-29T15:01:18;21.30;99.90
20700;DHT22;10511;51.232;9.420;2023-05-29T15:03:45;21.20;99.90
20700;DHT22;10511;51.232;9.420;2023-05-29T15:06:13;21.20;99.90
20700;DHT22;10511;51.232;9.420;2023-05-29T15:08:40;21.10;99.90
20700;DHT22;10511;51.232;9.420;2023-05-29T15:11:08;21.00;99.90
20700;DHT22;10511;51.232;9.420;2023-05-29T15:13:39;21.00;99.90
20700;DHT22;10511;51.232;9.420;2023-05-29T15:16:06;21.10;99.90
20700;DHT22;10511;51.232;9.420;2023-05-29T15:18:33;21.10;99.90
20700;DHT22;10511;51.232;9.420;2023-05-29T15:21:01;21.10;99.90
20700;DHT22;10511;51.232;9.420;2023-05-29T15:23:28;21.30;99.90
20700;DHT22;10511;51.232;9.420;2023-05-29T15:25:56;21.20;99.90
20700;DHT22;10511;51.232;9.420;2023-05-29T15:28:22;21.30;99.90
20700;DHT22;10511;51.232;9.420;2023-05-29T15:30:51;21.20;99.90
20700;DHT22;10511;51.232;9.420;2023-05-29T15:33:19;21.30;99.90
20700;DHT22;10511;51.232;9.420;2023-05-29T15:35:46;21.70;99.90
20700;DHT22;10511;51.232;9.420;2023-05-29T15:38:12;21.70;99.90